Nashville, Tennessee
Traffic Map
Current Weather Conditions
Nashville, Tennessee
Broken Clouds
Broken Clouds
24°
Feels Like: 24°
Wind Chill: 24° Ceiling: 4000
Heat Index: 24° Visibility: 7mi
Dew Point: 22° Wind: 6mph
Humidity: 90% Direction: ° ()
Pressure: 30.1in Gusts: 0mph
Raw Report DataKBNA 060253Z VRB05KT 7SM BKN040 24/22 A3010 RMK AO2 SLP185 T02390222 53019 $
Traffic Incident Summary
Active as of:
Severity:
Category:
InformationThere was an issue retrieving the traffic information for this location. Please try a different location or try again shortly.
Advertisements
Track Severe Weather on mobile